Terminal Aerodrome Forecast
Issued by NWS

Home | Current Version | Previous Version | Text Only | Print | Product List | Glossary On
Versions: 1 2 3 4 5 6 7 8 9 10 11 12 13 14 15 16 17 18 19 20
000
FTUS43 KMQT 022338
TAFSAW
TAF
KSAW 022338Z 0300/0324 08004KT P6SM -SHRA OVC050
     FM030300 00000KT 4SM BR VCSH OVC070
     FM030500 00000KT 2SM BR BKN050
     FM030800 00000KT 1/2SM FG BKN003
     FM031300 00000KT 3SM BR SCT030
     FM031500 07008KT P6SM FEW200=

USA.gov is the U.S. government's official web portal to all federal, state and local government web resources and services.